This is the latest recevied weather packets stored in our database for station/object OK1TBF-6. If no packets are shown the sender has not sent any weather packets the latest 10 day(s).
| Time | Temp. | Humidity | Pressure | Rain* | Wind** | Luminosity | Snow |
|---|---|---|---|---|---|---|---|
| 1777488378 | 5° C | 38% | 1018.5 hPa | 0 mm | - | - | - |
| 1777481176 | 7.22° C | 33% | 1017.2 hPa | 0 mm | - | - | - |
| 1777480875 | 7.22° C | 33% | 1017.2 hPa | 0 mm | - | - | - |
| 1777479974 | 7.78° C | 33% | 1017.1 hPa | 0 mm | - | - | - |
| 1777479676 | 7.78° C | 32% | 1016.9 hPa | 0 mm | - | - | - |
| 1777476675 | 7.78° C | 30% | 1016.8 hPa | 0 mm | - | - | - |
| 1777472174 | 8.89° C | 29% | 1016.5 hPa | 0 mm | - | - | - |
| 1777471873 | 8.89° C | 29% | 1016.6 hPa | 0 mm | - | - | - |
| 1777471574 | 8.89° C | 30% | 1016.2 hPa | 0 mm | - | - | - |
| 1777470074 | 8.89° C | 29% | 1016.3 hPa | 0 mm | - | - | - |
| 1777469474 | 9.44° C | 31% | 1016.3 hPa | 0 mm | - | - | - |
| 1777469174 | 9.44° C | 31% | 1016.3 hPa | 0 mm | - | - | - |
| 1777468273 | 9.44° C | 30% | 1016.2 hPa | 0 mm | - | - | - |
| 1777467974 | 8.89° C | 34% | 1016.3 hPa | 0 mm | - | - | - |
| 1777464673 | 8.33° C | 41% | 1016.3 hPa | 0 mm | - | - | - |
| 1777464073 | 9.44° C | 36% | 1015.9 hPa | 0 mm | - | - | - |
| 1777463472 | 8.33° C | 38% | 1016 hPa | 0 mm | - | - | - |
| 1777462873 | 8.89° C | 39% | 1016.2 hPa | 0 mm | - | - | - |
| 1777461373 | 8.33° C | 45% | 1016.2 hPa | 0 mm | - | - | - |
| 1777460473 | 8.33° C | 43% | 1016.1 hPa | 0 mm | - | - | - |
| 1777459273 | 8.33° C | 44% | 1016 hPa | 0 mm | - | - | - |
| 1777458071 | 7.22° C | 46% | 1016 hPa | 0 mm | - | - | - |
| 1777457772 | 7.78° C | 44% | 1016.3 hPa | 0 mm | - | - | - |
| 1777456873 | 7.78° C | 45% | 1016.1 hPa | 0 mm | - | - | - |
| 1777455072 | 7.78° C | 47% | 1016.1 hPa | 0 mm | - | - | - |
* Rain latest hour (hover to see other rain measurements)
** Current wind speed in m/s (hover to see current wind gust speed)